createdAt,value
2023-04-27T00:00:51.940Z,86.03
2023-04-27T00:03:20.628Z,86.82
2023-04-27T00:05:49.462Z,85.02
2023-04-27T00:08:18.022Z,86.37
2023-04-27T00:10:46.458Z,84.80
2023-04-27T00:13:16.249Z,84.07
2023-04-27T00:15:45.783Z,84.08
2023-04-27T00:18:14.567Z,84.08
2023-04-27T00:20:43.001Z,85.09
2023-04-27T00:23:11.828Z,85.06
2023-04-27T00:25:40.506Z,84.58
2023-04-27T00:28:08.915Z,84.78
2023-04-27T00:30:38.756Z,85.72
2023-04-27T00:33:07.388Z,86.53
2023-04-27T00:35:35.858Z,86.79
2023-04-27T00:38:04.261Z,86.77
2023-04-27T00:40:32.880Z,86.69
2023-04-27T00:43:01.294Z,86.04
2023-04-27T00:45:30.030Z,85.44
2023-04-27T00:48:00.730Z,85.98
2023-04-27T00:50:30.627Z,86.60
2023-04-27T00:52:59.156Z,86.06
2023-04-27T00:55:27.944Z,86.63
2023-04-27T00:57:56.535Z,86.77
2023-04-27T01:00:25.976Z,86.49
2023-04-27T01:02:55.055Z,86.72
2023-04-27T01:05:26.359Z,87.01
2023-04-27T01:07:54.811Z,87.49
2023-04-27T01:10:23.384Z,87.59
2023-04-27T01:12:52.882Z,87.91
2023-04-27T01:15:21.492Z,87.88
2023-04-27T01:17:50.001Z,87.92
2023-04-27T01:20:19.970Z,86.66
2023-04-27T01:22:50.898Z,86.79
2023-04-27T01:25:21.247Z,87.69
2023-04-27T01:27:49.700Z,87.82
2023-04-27T01:30:18.468Z,88.34
2023-04-27T01:32:47.066Z,87.51
2023-04-27T01:35:15.614Z,88.27
2023-04-27T01:37:44.150Z,87.81
2023-04-27T01:40:14.512Z,86.89
2023-04-27T01:42:44.405Z,87.23
2023-04-27T01:45:13.629Z,87.46
2023-04-27T01:47:42.142Z,86.66
2023-04-27T01:50:11.611Z,86.98
2023-04-27T01:52:40.098Z,86.00
2023-04-27T01:55:10.035Z,87.37
2023-04-27T01:57:38.741Z,86.81
2023-04-27T02:00:11.075Z,86.61
2023-04-27T02:02:40.055Z,87.37
2023-04-27T02:05:10.097Z,87.50
2023-04-27T02:07:38.624Z,86.44
2023-04-27T02:10:08.737Z,86.91
2023-04-27T02:12:37.205Z,87.16
2023-04-27T02:15:09.183Z,85.97
2023-04-27T02:17:38.639Z,86.24
2023-04-27T02:20:09.058Z,86.87
2023-04-27T02:22:37.700Z,85.89
2023-04-27T02:25:07.294Z,87.88
2023-04-27T02:27:38.454Z,85.75
2023-04-27T02:30:11.789Z,85.71
2023-04-27T02:32:41.375Z,85.93
2023-04-27T02:35:11.111Z,85.23
2023-04-27T02:37:39.931Z,86.40
2023-04-27T02:40:10.393Z,86.48
2023-04-27T02:42:39.372Z,86.19
2023-04-27T02:45:10.773Z,86.12
2023-04-27T02:47:39.245Z,86.13
2023-04-27T02:50:09.267Z,86.83
2023-04-27T02:52:37.804Z,85.88
2023-04-27T02:55:07.243Z,86.23
2023-04-27T02:57:35.767Z,85.29
2023-04-27T03:00:06.373Z,86.55
2023-04-27T03:02:36.552Z,85.88
2023-04-27T03:05:06.058Z,85.12
2023-04-27T03:07:34.546Z,85.71
2023-04-27T03:10:03.085Z,85.52
2023-04-27T03:12:31.774Z,85.22
2023-04-27T03:15:01.184Z,85.96
2023-04-27T03:17:29.970Z,86.19
2023-04-27T03:20:00.119Z,86.24
2023-04-27T03:22:28.674Z,87.33
2023-04-27T03:24:57.145Z,87.09
2023-04-27T03:27:25.766Z,86.24
2023-04-27T03:29:54.692Z,85.69
2023-04-27T03:32:23.514Z,86.08
2023-04-27T03:34:52.390Z,86.67
2023-04-27T03:37:22.212Z,86.90
2023-04-27T03:39:51.132Z,87.27
2023-04-27T03:42:19.627Z,86.59
2023-04-27T03:44:48.370Z,86.51
2023-04-27T03:47:16.842Z,86.34
2023-04-27T03:49:45.624Z,86.43
2023-04-27T03:52:14.179Z,86.89
2023-04-27T03:54:44.109Z,87.31
2023-04-27T03:57:12.606Z,85.83
2023-04-27T04:02:30.795Z,87.17
2023-04-27T04:04:59.447Z,87.17
2023-04-27T04:07:28.004Z,85.90
2023-04-27T04:09:57.849Z,86.04
2023-04-27T04:12:26.299Z,86.51
2023-04-27T04:14:54.915Z,86.60
2023-04-27T04:17:23.525Z,86.15
2023-04-27T04:19:52.058Z,85.22
2023-04-27T04:22:20.552Z,85.72
2023-04-27T04:24:49.132Z,85.67
2023-04-27T04:27:19.392Z,85.35
2023-04-27T04:29:48.489Z,86.10
2023-04-27T04:32:18.642Z,86.02
2023-04-27T04:34:51.269Z,85.75
2023-04-27T04:37:19.950Z,85.20
2023-04-27T04:39:48.578Z,86.51
2023-04-27T04:42:18.537Z,85.58
2023-04-27T04:44:47.218Z,85.23
2023-04-27T04:47:15.772Z,84.58
2023-04-27T04:49:44.260Z,85.45
2023-04-27T04:52:12.720Z,84.10
2023-04-27T04:54:41.391Z,85.18
2023-04-27T04:57:10.678Z,85.77
2023-04-27T04:59:41.263Z,85.54
2023-04-27T05:02:09.745Z,86.30
2023-04-27T05:04:38.369Z,85.12
2023-04-27T05:07:07.402Z,85.42
2023-04-27T05:09:35.856Z,85.25
2023-04-27T05:12:04.743Z,84.61
2023-04-27T05:14:33.289Z,85.87
2023-04-27T05:17:03.340Z,85.31
2023-04-27T05:19:32.348Z,84.69
2023-04-27T05:22:01.347Z,83.91
2023-04-27T05:24:30.064Z,85.08
2023-04-27T05:26:59.724Z,84.72
2023-04-27T05:29:30.186Z,84.60
2023-04-27T05:31:58.819Z,85.10
2023-04-27T05:34:28.687Z,84.54
2023-04-27T05:36:57.212Z,83.23
2023-04-27T05:39:26.518Z,84.40
2023-04-27T05:41:55.100Z,84.15
2023-04-27T05:44:25.487Z,84.12
2023-04-27T05:46:53.967Z,84.56
2023-04-27T05:49:23.050Z,84.58
2023-04-27T05:51:53.705Z,83.19
2023-04-27T05:54:22.229Z,82.86
2023-04-27T05:56:52.745Z,83.27
2023-04-27T05:59:21.946Z,82.97
2023-04-27T06:01:51.011Z,82.32
2023-04-27T06:04:19.691Z,82.58
2023-04-27T06:06:48.326Z,82.15
2023-04-27T06:09:18.229Z,82.28
2023-04-27T06:11:48.045Z,82.80
2023-04-27T06:14:17.110Z,82.78
2023-04-27T06:16:45.622Z,84.53
2023-04-27T06:19:14.335Z,82.98
2023-04-27T06:21:44.150Z,84.30
2023-04-27T06:24:12.599Z,86.19
2023-04-27T06:26:42.460Z,85.49
2023-04-27T06:29:11.881Z,85.46
2023-04-27T06:31:40.718Z,85.39
2023-04-27T06:34:09.276Z,85.25
2023-04-27T06:36:38.093Z,84.55
2023-04-27T06:39:06.581Z,83.91
2023-04-27T06:41:35.114Z,84.52
2023-04-27T06:44:05.038Z,83.55
2023-04-27T06:46:33.593Z,83.49
2023-04-27T06:49:02.869Z,85.03
2023-04-27T06:51:32.017Z,84.42
2023-04-27T06:54:00.518Z,82.73
2023-04-27T06:56:29.614Z,83.94
2023-04-27T06:58:58.184Z,83.41
2023-04-27T07:01:28.113Z,84.23
2023-04-27T07:03:57.499Z,83.72
2023-04-27T07:06:28.878Z,81.42
2023-04-27T07:08:57.696Z,79.19
2023-04-27T07:11:26.334Z,78.70
2023-04-27T07:13:55.241Z,78.50
2023-04-27T07:16:23.814Z,77.14
2023-04-27T07:18:53.720Z,75.66
2023-04-27T07:21:22.208Z,73.05
2023-04-27T07:23:50.823Z,72.47
2023-04-27T07:26:20.535Z,69.84
2023-04-27T07:28:49.009Z,69.26
2023-04-27T07:31:19.089Z,69.91
2023-04-27T07:33:47.879Z,65.48
2023-04-27T07:36:17.858Z,59.10
2023-04-27T07:38:46.316Z,61.06
2023-04-27T07:41:15.777Z,64.08
2023-04-27T07:43:44.278Z,62.98
2023-04-27T07:46:13.073Z,64.83
2023-04-27T07:48:42.293Z,65.59
2023-04-27T07:51:10.763Z,64.39
2023-04-27T07:53:40.856Z,64.10
2023-04-27T07:56:10.208Z,64.53
2023-04-27T07:58:39.886Z,63.82
2023-04-27T08:01:09.518Z,66.40
2023-04-27T08:03:38.269Z,65.91
2023-04-27T08:06:07.544Z,66.17
2023-04-27T08:08:36.417Z,65.71
2023-04-27T08:11:06.487Z,65.71
2023-04-27T08:13:36.524Z,65.54
2023-04-27T08:16:05.773Z,64.90
2023-04-27T08:18:34.660Z,65.94
2023-04-27T08:21:04.175Z,65.87
2023-04-27T08:23:33.344Z,66.80
2023-04-27T08:26:01.851Z,66.77
2023-04-27T08:28:31.759Z,64.88
2023-04-27T08:31:00.421Z,64.70
2023-04-27T08:33:28.941Z,66.00
2023-04-27T08:35:57.640Z,65.71
2023-04-27T08:38:26.196Z,66.32
2023-04-27T08:40:54.710Z,65.13
2023-04-27T08:43:23.248Z,65.60
2023-04-27T08:45:53.449Z,65.76
2023-04-27T08:48:22.257Z,64.33
2023-04-27T08:50:52.814Z,62.19
2023-04-27T08:53:23.171Z,60.36
2023-04-27T08:55:53.962Z,61.67
2023-04-27T08:58:22.506Z,60.76
2023-04-27T09:00:52.785Z,58.47
2023-04-27T09:03:25.132Z,60.35
2023-04-27T09:06:04.539Z,60.59
2023-04-27T09:08:46.583Z,59.66
2023-04-27T09:11:15.572Z,60.09
2023-04-27T09:13:45.665Z,64.38
2023-04-27T09:16:15.709Z,63.33
2023-04-27T09:18:45.440Z,63.82
2023-04-27T09:21:24.235Z,64.24
2023-04-27T09:23:53.394Z,63.80
2023-04-27T09:26:23.590Z,62.01
2023-04-27T09:28:54.660Z,61.54
2023-04-27T09:31:32.517Z,61.78
2023-04-27T09:34:01.499Z,58.50
2023-04-27T09:36:32.546Z,62.79
2023-04-27T09:39:06.335Z,61.52
2023-04-27T09:41:35.407Z,63.39
2023-04-27T09:44:05.181Z,62.72
2023-04-27T09:46:36.929Z,64.51
2023-04-27T09:49:06.764Z,62.96
2023-04-27T09:51:36.119Z,63.10
2023-04-27T09:54:06.341Z,63.23
2023-04-27T09:56:50.746Z,62.83
2023-04-27T09:59:48.308Z,62.33
2023-04-27T10:02:25.311Z,63.58
2023-04-27T10:05:29.530Z,64.03
2023-04-27T10:07:58.153Z,63.04
2023-04-27T10:10:26.697Z,62.27
2023-04-27T10:12:59.652Z,60.69
2023-04-27T10:15:29.918Z,58.32
2023-04-27T10:18:07.074Z,59.02
2023-04-27T10:20:38.960Z,56.29
2023-04-27T10:23:08.151Z,57.51
2023-04-27T10:25:41.497Z,57.92
2023-04-27T10:28:17.229Z,59.70
2023-04-27T10:30:49.052Z,59.24
2023-04-27T10:33:21.711Z,60.59
2023-04-27T10:35:58.157Z,60.26
2023-04-27T10:38:31.731Z,60.34
2023-04-27T10:41:02.682Z,60.88
2023-04-27T10:43:33.479Z,60.22
2023-04-27T10:46:13.499Z,59.42
2023-04-27T10:48:44.036Z,59.63
2023-04-27T10:51:16.666Z,60.35
2023-04-27T10:53:45.503Z,59.22
2023-04-27T10:56:14.247Z,60.53
2023-04-27T10:58:48.817Z,60.42
2023-04-27T11:01:26.114Z,61.46
2023-04-27T11:03:58.980Z,61.87
2023-04-27T11:06:28.312Z,62.99
2023-04-27T11:08:57.200Z,62.49
2023-04-27T11:11:26.636Z,63.31
2023-04-27T11:13:56.005Z,63.86
2023-04-27T11:16:25.468Z,62.35
2023-04-27T11:18:55.241Z,63.55
2023-04-27T11:21:25.178Z,62.32
2023-04-27T11:23:53.712Z,63.21
2023-04-27T11:26:26.641Z,62.40
2023-04-27T11:29:01.756Z,60.76
2023-04-27T11:31:41.955Z,62.71
2023-04-27T11:34:11.359Z,61.36
2023-04-27T11:36:41.287Z,61.26
2023-04-27T11:39:11.717Z,60.82
2023-04-27T11:41:45.850Z,58.29
2023-04-27T11:44:14.970Z,59.58
2023-04-27T11:46:47.735Z,58.10
2023-04-27T11:49:16.607Z,59.78
2023-04-27T11:51:48.817Z,58.06
2023-04-27T11:54:17.753Z,58.49
2023-04-27T11:56:46.518Z,59.27
2023-04-27T11:59:23.341Z,59.17
2023-04-27T12:01:53.213Z,59.56
2023-04-27T12:04:22.207Z,62.93
2023-04-27T12:06:52.330Z,62.14
2023-04-27T12:09:20.788Z,63.72
2023-04-27T12:11:49.304Z,62.30
2023-04-27T12:14:19.933Z,61.42
2023-04-27T12:16:48.686Z,60.84
2023-04-27T12:19:17.592Z,58.66
2023-04-27T12:21:46.748Z,58.59
2023-04-27T12:24:16.817Z,61.86
2023-04-27T12:26:45.862Z,55.75
2023-04-27T12:29:14.376Z,56.39
2023-04-27T12:31:42.953Z,58.88
2023-04-27T12:34:12.238Z,53.95
2023-04-27T12:36:41.382Z,52.49
2023-04-27T12:39:20.092Z,53.15
2023-04-27T12:41:49.702Z,53.92
2023-04-27T12:44:19.808Z,54.77
2023-04-27T12:46:49.253Z,55.65
2023-04-27T12:49:18.397Z,57.17
2023-04-27T12:51:47.973Z,55.75
2023-04-27T12:54:17.873Z,54.67
2023-04-27T12:56:47.177Z,54.24
2023-04-27T12:59:16.846Z,54.90
2023-04-27T13:01:46.048Z,54.43
2023-04-27T13:04:22.703Z,54.92
2023-04-27T13:06:51.874Z,57.39
2023-04-27T13:09:22.300Z,58.92
2023-04-27T13:11:53.169Z,59.34
2023-04-27T13:14:21.812Z,59.23
2023-04-27T13:16:50.310Z,59.23
2023-04-27T13:19:18.770Z,60.67
2023-04-27T13:21:47.249Z,58.73
2023-04-27T13:24:17.594Z,58.59
2023-04-27T13:26:47.635Z,58.52
2023-04-27T13:29:16.318Z,59.73
2023-04-27T13:31:44.856Z,59.02
2023-04-27T13:34:13.594Z,58.03
2023-04-27T13:36:42.302Z,58.66
2023-04-27T13:39:10.824Z,58.77
2023-04-27T13:41:39.350Z,57.99
2023-04-27T13:44:09.252Z,56.79
2023-04-27T13:46:38.063Z,58.98
2023-04-27T13:49:06.631Z,57.99
2023-04-27T13:51:36.003Z,56.96
2023-04-27T13:54:04.740Z,56.66
2023-04-27T13:56:33.459Z,55.88
2023-04-27T13:59:02.214Z,57.43
2023-04-27T14:01:33.372Z,56.98
2023-04-27T14:04:02.322Z,58.74
2023-04-27T14:06:32.007Z,55.85
2023-04-27T14:09:00.512Z,57.04
2023-04-27T14:11:29.062Z,55.61
2023-04-27T14:13:58.127Z,56.42
2023-04-27T14:16:26.836Z,51.92
2023-04-27T14:18:57.032Z,52.61
2023-04-27T14:21:26.560Z,54.37
2023-04-27T14:23:55.231Z,51.89
2023-04-27T14:26:23.715Z,52.35
2023-04-27T14:28:52.210Z,51.13
2023-04-27T14:31:20.769Z,52.14
2023-04-27T14:33:49.236Z,53.10
2023-04-27T14:36:19.363Z,54.20
2023-04-27T14:38:47.892Z,53.04
2023-04-27T14:41:16.549Z,51.57
2023-04-27T14:43:47.114Z,51.84
2023-04-27T14:46:21.011Z,53.34
2023-04-27T14:48:51.489Z,52.39
2023-04-27T14:51:21.871Z,53.09
2023-04-27T14:53:50.413Z,52.64
2023-04-27T14:56:18.920Z,51.83
2023-04-27T14:58:47.403Z,48.69
2023-04-27T15:01:16.387Z,51.75
2023-04-27T15:03:45.116Z,51.65
2023-04-27T15:06:13.939Z,48.12
2023-04-27T15:08:43.753Z,47.52
2023-04-27T15:11:12.232Z,52.00
2023-04-27T15:13:41.674Z,49.68
2023-04-27T15:16:10.228Z,48.25
2023-04-27T15:18:38.754Z,47.58
2023-04-27T15:21:08.004Z,46.85
2023-04-27T15:23:37.410Z,50.72
2023-04-27T15:26:07.359Z,51.04
2023-04-27T15:28:36.414Z,52.23
2023-04-27T15:31:05.209Z,53.05
2023-04-27T15:33:33.752Z,52.89
2023-04-27T15:36:02.263Z,52.17
2023-04-27T15:38:30.812Z,50.40
2023-04-27T15:40:59.797Z,50.46
2023-04-27T15:43:29.711Z,50.83
2023-04-27T15:45:58.174Z,48.27
2023-04-27T15:48:26.828Z,48.76
2023-04-27T15:50:55.298Z,49.00
2023-04-27T15:53:24.064Z,49.58
2023-04-27T15:55:52.932Z,50.96
2023-04-27T15:58:21.545Z,49.18
2023-04-27T16:00:51.628Z,51.19
2023-04-27T16:03:20.478Z,49.37
2023-04-27T16:05:52.518Z,50.66
2023-04-27T16:08:21.086Z,48.26
2023-04-27T16:10:50.849Z,47.93
2023-04-27T16:13:19.330Z,48.21
2023-04-27T16:15:47.793Z,48.68
2023-04-27T16:18:17.659Z,47.49
2023-04-27T16:20:46.168Z,48.60
2023-04-27T16:23:14.701Z,48.00
2023-04-27T16:25:43.178Z,47.00
2023-04-27T16:28:11.907Z,48.85
2023-04-27T16:30:40.451Z,47.75
2023-04-27T16:33:09.000Z,49.23
2023-04-27T16:35:38.978Z,46.46
2023-04-27T16:38:07.546Z,47.38
2023-04-27T16:40:36.062Z,47.39
2023-04-27T16:43:04.566Z,47.96
2023-04-27T16:45:34.483Z,49.45
2023-04-27T16:48:03.462Z,51.12
2023-04-27T16:50:33.475Z,51.84
2023-04-27T16:53:13.695Z,52.57
2023-04-27T16:55:42.336Z,54.24
2023-04-27T16:58:11.100Z,55.07
2023-04-27T17:00:40.222Z,55.87
2023-04-27T17:03:09.782Z,55.56
2023-04-27T17:05:38.619Z,55.16
2023-04-27T17:08:08.554Z,56.52
2023-04-27T17:10:37.741Z,56.91
2023-04-27T17:13:07.790Z,57.51
2023-04-27T17:15:36.980Z,56.10
2023-04-27T17:18:05.891Z,57.09
2023-04-27T17:20:34.526Z,57.65
2023-04-27T17:23:03.157Z,57.57
2023-04-27T17:25:33.108Z,57.76
2023-04-27T17:28:01.908Z,57.92
2023-04-27T17:30:30.428Z,58.49
2023-04-27T17:32:59.022Z,58.33
2023-04-27T17:35:27.749Z,63.91
2023-04-27T17:37:56.456Z,66.63
2023-04-27T17:40:24.980Z,65.95
2023-04-27T17:42:56.628Z,66.95
2023-04-27T17:45:26.786Z,66.71
2023-04-27T17:47:55.351Z,66.19
2023-04-27T17:50:25.129Z,68.72
2023-04-27T17:52:54.225Z,68.82
2023-04-27T17:55:23.520Z,69.49
2023-04-27T17:57:52.128Z,68.94
2023-04-27T18:00:23.303Z,69.93
2023-04-27T18:02:52.176Z,70.31
2023-04-27T18:05:20.864Z,75.80
2023-04-27T18:07:50.202Z,75.17
2023-04-27T18:10:18.806Z,72.93
2023-04-27T18:12:47.363Z,71.76
2023-04-27T18:15:15.900Z,75.66
2023-04-27T18:17:45.937Z,73.07
2023-04-27T18:20:15.872Z,74.70
2023-04-27T18:22:44.512Z,76.58
2023-04-27T18:25:13.370Z,76.74
2023-04-27T18:27:43.951Z,76.88
2023-04-27T18:30:13.077Z,78.18
2023-04-27T18:32:41.621Z,78.02
2023-04-27T18:35:11.820Z,79.23
2023-04-27T18:37:40.508Z,79.62
2023-04-27T18:40:10.934Z,78.66
2023-04-27T18:42:39.409Z,77.74
2023-04-27T18:45:09.841Z,77.33
2023-04-27T18:47:38.504Z,77.96
2023-04-27T18:50:09.021Z,75.62
2023-04-27T18:52:38.976Z,79.00
2023-04-27T18:55:10.175Z,79.09
2023-04-27T18:57:38.754Z,80.89
2023-04-27T19:00:10.678Z,80.50
2023-04-27T19:02:39.803Z,80.59
2023-04-27T19:05:13.410Z,80.16
2023-04-27T19:07:43.493Z,78.88
2023-04-27T19:10:13.880Z,78.35
2023-04-27T19:12:42.419Z,80.28
2023-04-27T19:15:12.395Z,78.65
2023-04-27T19:17:41.468Z,78.17
2023-04-27T19:20:11.343Z,80.51
2023-04-27T19:22:39.813Z,82.33
2023-04-27T19:25:10.931Z,81.60
2023-04-27T19:27:39.783Z,83.32
2023-04-27T19:30:10.289Z,83.27
2023-04-27T19:32:38.842Z,83.16
2023-04-27T19:35:11.772Z,84.17
2023-04-27T19:37:40.345Z,83.99
2023-04-27T19:40:12.366Z,83.05
2023-04-27T19:42:40.949Z,84.04
2023-04-27T19:45:10.810Z,82.89
2023-04-27T19:47:39.364Z,84.38
2023-04-27T19:50:08.925Z,84.01
2023-04-27T19:52:37.830Z,81.40
2023-04-27T19:55:07.207Z,80.98
2023-04-27T19:57:37.795Z,81.20
2023-04-27T20:00:11.654Z,82.46
2023-04-27T20:02:40.675Z,82.86
2023-04-27T20:05:09.820Z,83.31
2023-04-27T20:07:38.982Z,82.76
2023-04-27T20:10:08.729Z,83.14
2023-04-27T20:12:52.019Z,83.89
2023-04-27T20:15:25.396Z,84.90
2023-04-27T20:17:53.982Z,84.77
2023-04-27T20:20:22.767Z,84.50
2023-04-27T20:22:51.442Z,84.26
2023-04-27T20:25:20.473Z,84.31
2023-04-27T20:27:50.373Z,85.01
2023-04-27T20:30:18.965Z,85.03
2023-04-27T20:32:47.506Z,83.77
2023-04-27T20:35:16.102Z,83.65
2023-04-27T20:37:44.882Z,84.81
2023-04-27T20:40:17.653Z,83.93
2023-04-27T20:42:46.921Z,82.72
2023-04-27T20:45:17.574Z,83.11
2023-04-27T20:47:46.371Z,84.55
2023-04-27T20:50:15.112Z,84.50
2023-04-27T20:52:43.591Z,83.23
2023-04-27T20:55:12.490Z,83.10
2023-04-27T20:57:40.961Z,84.62
2023-04-27T21:00:10.833Z,83.68
2023-04-27T21:02:41.084Z,82.15
2023-04-27T21:05:10.259Z,83.19
2023-04-27T21:07:38.941Z,84.96
2023-04-27T21:10:08.873Z,86.16
2023-04-27T21:12:37.347Z,85.28
2023-04-27T21:15:06.938Z,85.71
2023-04-27T21:17:35.827Z,85.33
2023-04-27T21:20:06.622Z,85.84
2023-04-27T21:22:35.152Z,85.52
2023-04-27T21:25:04.969Z,84.79
2023-04-27T21:27:33.496Z,85.98
2023-04-27T21:30:01.987Z,84.97
2023-04-27T21:32:30.645Z,84.06
2023-04-27T21:34:59.196Z,85.95
2023-04-27T21:37:29.306Z,84.30
2023-04-27T21:39:57.777Z,84.73
2023-04-27T21:42:26.621Z,85.66
2023-04-27T21:44:56.175Z,84.50
2023-04-27T21:47:24.777Z,83.09
2023-04-27T21:49:53.316Z,83.28
2023-04-27T21:52:22.564Z,86.77
2023-04-27T21:54:52.640Z,84.37
2023-04-27T21:57:21.108Z,84.23
2023-04-27T21:59:49.789Z,84.85
2023-04-27T22:02:18.392Z,84.91
2023-04-27T22:04:49.451Z,84.79
2023-04-27T22:07:18.688Z,84.29
2023-04-27T22:09:47.203Z,85.25
2023-04-27T22:12:17.021Z,86.53
2023-04-27T22:14:46.984Z,86.06
2023-04-27T22:17:15.437Z,86.05
2023-04-27T22:19:43.914Z,85.66
2023-04-27T22:22:12.744Z,86.32
2023-04-27T22:24:41.355Z,85.30
2023-04-27T22:27:10.039Z,85.16
2023-04-27T22:29:39.890Z,86.48
2023-04-27T22:32:08.657Z,84.89
2023-04-27T22:34:37.521Z,85.44
2023-04-27T22:37:06.090Z,85.98
2023-04-27T22:39:34.596Z,88.95
2023-04-27T22:42:03.042Z,86.15
2023-04-27T22:44:32.044Z,86.88
2023-04-27T22:47:02.535Z,87.41
2023-04-27T22:49:32.135Z,87.50
2023-04-27T22:52:00.618Z,86.74
2023-04-27T22:54:29.771Z,86.18
2023-04-27T22:56:58.688Z,84.64
2023-04-27T22:59:27.214Z,85.55
2023-04-27T23:01:55.880Z,86.56
2023-04-27T23:04:26.582Z,85.82
2023-04-27T23:06:55.445Z,84.90
2023-04-27T23:09:23.924Z,85.60
2023-04-27T23:11:52.417Z,87.18
2023-04-27T23:14:21.303Z,88.44
2023-04-27T23:16:49.849Z,85.36
2023-04-27T23:19:18.393Z,85.33
2023-04-27T23:21:48.185Z,86.18
2023-04-27T23:24:16.785Z,86.09
2023-04-27T23:26:45.353Z,86.40
2023-04-27T23:29:13.797Z,87.32
2023-04-27T23:31:42.387Z,87.85
2023-04-27T23:34:10.821Z,87.05
2023-04-27T23:36:39.572Z,88.51
2023-04-27T23:39:09.438Z,88.58
2023-04-27T23:41:38.622Z,86.34
2023-04-27T23:44:07.140Z,86.58
2023-04-27T23:46:36.193Z,86.89
2023-04-27T23:49:04.700Z,88.74
2023-04-27T23:51:33.335Z,86.94
2023-04-27T23:54:02.502Z,87.48
2023-04-27T23:56:32.309Z,87.72
2023-04-27T23:59:01.024Z,87.52
